Time;durP1;ratioP1;P1;durP2;ratioP2;P2;SDS_P1;SDS_P2;PMS_P1;PMS_P2;Temp;Humidity;BMP_temperature;BMP_pressure;BME280_temperature;BME280_humidity;BME280_pressure;Samples;Min_cycle;Max_cycle;Signal;HPM_P1;HPM_P2
2023/11/13 00:01:47;;;;;;;27.60;17.98;;;;;;;5.83;87.33;99563.33;1683679;85;25629;-63
2023/11/13 00:04:13;;;;;;;27.95;18.02;;;;;;;5.83;87.30;99565.23;1683541;85;25748;-64
2023/11/13 00:06:40;;;;;;;27.02;17.80;;;;;;;5.82;87.34;99568.44;1683670;85;25629;-63
2023/11/13 00:09:07;;;;;;;27.05;18.62;;;;;;;5.79;87.58;99568.50;1683704;85;27916;-64
2023/11/13 00:11:33;;;;;;;27.05;18.02;;;;;;;5.81;87.39;99566.86;1683617;85;25793;-63
2023/11/13 00:14:00;;;;;;;29.70;18.10;;;;;;;5.79;87.45;99564.47;1683644;85;25514;-63
2023/11/13 00:16:27;;;;;;;24.67;17.32;;;;;;;5.82;87.56;99570.33;1683659;85;25691;-63
2023/11/13 00:18:54;;;;;;;28.85;17.85;;;;;;;5.82;87.82;99569.78;1683731;85;25408;-63
2023/11/13 00:21:21;;;;;;;25.20;17.42;;;;;;;5.82;87.74;99571.67;1683686;85;27353;-63
2023/11/13 00:23:48;;;;;;;26.95;17.17;;;;;;;5.83;87.79;99574.06;1683556;85;27139;-64
2023/11/13 00:26:15;;;;;;;27.85;17.87;;;;;;;5.82;87.67;99576.48;1683600;85;25632;-64
2023/11/13 00:28:42;;;;;;;25.65;17.55;;;;;;;5.84;87.82;99570.83;1683615;85;25981;-62
2023/11/13 00:31:09;;;;;;;24.92;17.35;;;;;;;5.86;87.92;99580.75;1683672;85;25422;-63
2023/11/13 00:33:35;;;;;;;26.70;18.25;;;;;;;5.86;87.87;99583.44;1679203;85;27078;-63
2023/11/13 00:36:03;;;;;;;29.95;18.40;;;;;;;5.86;87.86;99588.80;1683598;85;25609;-63
2023/11/13 00:38:29;;;;;;;27.62;17.55;;;;;;;5.87;87.93;99579.64;1683652;85;25471;-63
2023/11/13 00:40:56;;;;;;;27.52;17.85;;;;;;;5.87;87.76;99587.69;1683579;85;25965;-63
2023/11/13 00:43:23;;;;;;;28.20;18.77;;;;;;;5.87;87.87;99593.06;1683662;85;25500;-63
2023/11/13 00:45:50;;;;;;;27.77;17.82;;;;;;;5.84;87.81;99587.75;1683602;85;27361;-63
2023/11/13 00:48:18;;;;;;;26.65;18.20;;;;;;;5.85;87.83;99594.70;1679285;85;25627;-63
2023/11/13 00:50:45;;;;;;;28.32;18.65;;;;;;;5.87;87.85;99593.84;1683619;85;25649;-63
2023/11/13 00:53:12;;;;;;;24.70;16.80;;;;;;;5.88;87.92;99592.77;1683587;85;25556;-63
2023/11/13 00:55:39;;;;;;;27.15;18.17;;;;;;;5.89;87.94;99600.27;1665577;85;25680;-64
2023/11/13 00:58:06;;;;;;;27.58;17.70;;;;;;;5.91;87.89;99600.23;1682447;85;28685;-64
2023/11/13 01:00:34;;;;;;;26.52;17.73;;;;;;;5.87;87.76;99596.53;1683116;85;25720;-65
2023/11/13 01:03:04;;;;;;;27.37;17.82;;;;;;;5.85;87.65;99586.64;1683596;85;25476;-64
2023/11/13 01:05:33;;;;;;;26.80;18.20;;;;;;;5.85;87.68;99593.91;1665259;84;25657;-64
2023/11/13 01:07:59;;;;;;;25.55;17.23;;;;;;;5.84;87.57;99602.52;1695043;84;25614;-63
2023/11/13 01:10:26;;;;;;;25.48;17.90;;;;;;;5.83;87.65;99596.09;1695008;84;27388;-63
2023/11/13 01:12:54;;;;;;;25.55;16.35;;;;;;;5.83;87.56;99599.56;1694967;84;25663;-63
2023/11/13 01:15:20;;;;;;;28.47;16.67;;;;;;;5.82;87.58;99598.52;1695052;84;25490;-63
2023/11/13 01:17:48;;;;;;;24.80;17.70;;;;;;;5.80;87.36;99604.17;1694973;84;27782;-64
2023/11/13 01:20:18;;;;;;;26.00;16.52;;;;;;;5.79;87.16;99601.25;1695046;84;25476;-64
2023/11/13 01:22:45;;;;;;;27.37;16.95;;;;;;;5.75;87.12;99606.94;1695127;84;27468;-64
2023/11/13 01:25:12;;;;;;;22.48;16.62;;;;;;;5.73;87.06;99608.57;1694971;84;25598;-64
2023/11/13 01:27:39;;;;;;;23.05;16.27;;;;;;;5.71;87.10;99611.31;1695012;84;25588;-64
2023/11/13 01:30:10;;;;;;;21.90;15.43;;;;;;;5.69;87.04;99605.45;1694988;84;25617;-64
2023/11/13 01:32:37;;;;;;;23.07;16.30;;;;;;;5.70;87.05;99604.34;1695107;84;25430;-64
2023/11/13 01:35:06;;;;;;;24.63;15.53;;;;;;;5.68;87.06;99601.94;1695141;84;27455;-64
2023/11/13 01:37:33;;;;;;;22.73;14.43;;;;;;;5.69;87.13;99606.78;1695212;84;25792;-64
2023/11/13 01:40:00;;;;;;;23.10;15.10;;;;;;;5.65;86.98;99600.39;1665677;84;25597;-63
2023/11/13 01:42:27;;;;;;;21.45;15.13;;;;;;;5.63;86.96;99601.23;1695001;84;25678;-64
2023/11/13 01:44:55;;;;;;;22.58;15.15;;;;;;;5.60;86.78;99595.38;1695021;84;25379;-64
2023/11/13 01:47:24;;;;;;;22.52;15.43;;;;;;;5.57;86.91;99597.30;1695001;84;27348;-63
2023/11/13 01:49:51;;;;;;;20.05;14.23;;;;;;;5.59;87.06;99606.39;1694976;84;25652;-63
2023/11/13 01:52:20;;;;;;;23.35;15.58;;;;;;;5.55;87.09;99600.81;1695015;84;25609;-64
2023/11/13 01:54:47;;;;;;;23.47;15.15;;;;;;;5.56;87.07;99605.63;1694998;84;26350;-64
2023/11/13 01:57:14;;;;;;;24.35;14.65;;;;;;;5.54;87.13;99608.60;1695066;84;25403;-63
2023/11/13 01:59:43;;;;;;;22.35;14.13;;;;;;;5.50;87.09;99615.66;1695019;84;27337;-63
2023/11/13 02:02:10;;;;;;;23.20;13.85;;;;;;;5.49;87.17;99611.92;1685060;84;25701;-63
2023/11/13 02:04:38;;;;;;;21.05;13.80;;;;;;;5.45;87.15;99609.02;1694630;84;25664;-64
2023/11/13 02:07:06;;;;;;;18.92;13.38;;;;;;;5.42;86.99;99610.94;1692438;84;25734;-64
2023/11/13 02:09:34;;;;;;;18.60;12.40;;;;;;;5.38;86.92;99608.05;1692560;84;25411;-64
2023/11/13 02:12:02;;;;;;;18.90;11.75;;;;;;;5.37;86.87;99612.36;1692516;84;27919;-65
2023/11/13 02:14:31;;;;;;;17.75;11.53;;;;;;;5.34;86.90;99609.70;1692442;84;25641;-64
2023/11/13 02:17:06;;;;;;;19.10;11.35;;;;;;;5.31;86.92;99606.28;1692661;84;25667;-63
2023/11/13 02:19:33;;;;;;;14.55;10.63;;;;;;;5.31;87.00;99610.83;1692486;84;25742;-64
2023/11/13 02:22:00;;;;;;;18.42;11.85;;;;;;;5.29;87.00;99605.75;1692515;84;25412;-64
2023/11/13 02:24:27;;;;;;;16.10;10.78;;;;;;;5.27;87.23;99605.25;1692478;84;27306;-64
2023/11/13 02:26:55;;;;;;;15.68;11.05;;;;;;;5.26;87.15;99613.05;1692378;84;25232;-64
2023/11/13 02:29:22;;;;;;;18.52;11.55;;;;;;;5.25;87.25;99603.41;1692251;84;25766;-64
2023/11/13 02:31:54;;;;;;;15.05;10.63;;;;;;;5.24;87.41;99609.84;1692457;84;25641;-64
2023/11/13 02:34:23;;;;;;;17.60;11.33;;;;;;;5.23;87.71;99610.39;1692535;84;25518;-64
2023/11/13 02:36:52;;;;;;;16.67;11.60;;;;;;;5.25;87.88;99607.42;1692513;84;27417;-65
2023/11/13 02:39:21;;;;;;;17.42;10.85;;;;;;;5.26;88.18;99606.35;1692512;84;27293;-64
2023/11/13 02:41:51;;;;;;;17.12;10.48;;;;;;;5.27;88.14;99608.48;1692696;84;25612;-64
2023/11/13 02:44:19;;;;;;;14.58;10.23;;;;;;;5.27;88.12;99607.14;1692511;84;26212;-64
2023/11/13 02:46:45;;;;;;;15.83;10.55;;;;;;;5.29;88.21;99610.32;1692531;84;25488;-64
2023/11/13 02:49:13;;;;;;;14.60;10.53;;;;;;;5.28;88.17;99610.05;1692513;84;26536;-63
2023/11/13 02:51:41;;;;;;;13.85;9.80;;;;;;;5.30;88.23;99615.40;1692425;84;25646;-64
2023/11/13 02:54:09;;;;;;;13.75;9.63;;;;;;;5.32;88.23;99615.90;1658786;86;25589;-63
2023/11/13 02:56:35;;;;;;;15.40;10.35;;;;;;;5.34;88.13;99619.63;1670349;85;25659;-64
2023/11/13 02:59:02;;;;;;;13.35;9.55;;;;;;;5.36;88.33;99630.86;1670528;85;25661;-64
2023/11/13 03:01:29;;;;;;;14.43;9.45;;;;;;;5.37;88.39;99636.49;1658901;86;28043;-63
2023/11/13 03:03:56;;;;;;;16.93;9.23;;;;;;;5.38;88.68;99629.50;1631737;88;25675;-63
2023/11/13 03:06:23;;;;;;;14.07;9.58;;;;;;;5.41;88.78;99638.31;1670836;85;25657;-63
2023/11/13 03:08:50;;;;;;;14.90;9.70;;;;;;;5.41;88.97;99646.88;1671192;85;25623;-63
2023/11/13 03:11:17;;;;;;;15.70;10.88;;;;;;;5.40;89.34;99632.69;1649016;86;25648;-64
2023/11/13 03:13:44;;;;;;;13.22;9.85;;;;;;;5.40;89.34;99634.03;1666617;86;27369;-64
2023/11/13 03:16:11;;;;;;;14.07;10.05;;;;;;;5.40;89.75;99634.58;1666572;86;25660;-64
2023/11/13 03:18:38;;;;;;;13.35;9.85;;;;;;;5.39;89.71;99634.31;1648801;86;25525;-64
2023/11/13 03:21:06;;;;;;;16.62;10.65;;;;;;;5.35;90.07;99627.39;1622821;88;26617;-63
2023/11/13 03:23:34;;;;;;;12.60;9.35;;;;;;;5.34;90.08;99629.02;1622991;87;25490;-63
2023/11/13 03:26:03;;;;;;;13.88;10.18;;;;;;;5.31;90.14;99634.44;1622816;88;28045;-63
2023/11/13 03:28:30;;;;;;;13.50;10.32;;;;;;;5.31;90.33;99629.59;1666433;84;25623;-63
2023/11/13 03:30:58;;;;;;;14.85;10.32;;;;;;;5.31;90.37;99633.62;1666590;86;25698;-64
2023/11/13 03:33:25;;;;;;;14.83;10.15;;;;;;;5.27;90.65;99623.23;1666569;86;26291;-63
2023/11/13 03:35:52;;;;;;;13.18;9.00;;;;;;;5.26;90.47;99634.51;1666624;86;25522;-63
2023/11/13 03:38:18;;;;;;;14.43;9.75;;;;;;;5.26;90.45;99635.84;1622767;88;27336;-63
2023/11/13 03:40:46;;;;;;;14.05;9.85;;;;;;;5.26;90.58;99633.69;1622709;88;25650;-64
2023/11/13 03:43:13;;;;;;;14.75;10.10;;;;;;;5.24;90.70;99628.09;1622778;88;25565;-64
2023/11/13 03:45:40;;;;;;;12.20;9.30;;;;;;;5.25;90.70;99630.22;1622757;88;25675;-64
2023/11/13 03:48:07;;;;;;;12.68;9.55;;;;;;;5.26;90.59;99632.34;1622810;88;25583;-64
2023/11/13 03:50:34;;;;;;;13.13;9.05;;;;;;;5.25;90.49;99624.86;1622812;88;27358;-64
2023/11/13 03:53:01;;;;;;;12.43;8.78;;;;;;;5.26;90.66;99626.47;1622719;87;25583;-65
2023/11/13 03:55:28;;;;;;;11.80;8.65;;;;;;;5.27;90.66;99620.55;1622764;87;25406;-65
2023/11/13 03:57:55;;;;;;;12.03;9.03;;;;;;;5.28;90.59;99617.58;1622786;88;25723;-65
2023/11/13 04:00:23;;;;;;;11.05;8.25;;;;;;;5.29;90.68;99629.09;1622820;88;25489;-63
2023/11/13 04:02:51;;;;;;;13.55;8.58;;;;;;;5.29;90.67;99622.39;1622795;88;27358;-64
2023/11/13 04:05:18;;;;;;;13.22;8.70;;;;;;;5.30;90.67;99622.66;1625201;86;25593;-63
2023/11/13 04:07:44;;;;;;;13.80;8.58;;;;;;;5.29;90.56;99625.86;1647922;87;25593;-65
2023/11/13 04:10:16;;;;;;;13.72;8.40;;;;;;;5.30;90.56;99623.45;1647868;87;25616;-65
2023/11/13 04:12:44;;;;;;;11.55;8.45;;;;;;;5.29;90.59;99617.02;1683730;85;25600;-65
2023/11/13 04:15:12;;;;;;;9.08;6.50;;;;;;;5.28;90.49;99614.90;1647945;87;27384;-64
2023/11/13 04:17:39;;;;;;;12.50;8.05;;;;;;;5.26;90.28;99613.58;1659519;86;25639;-64
2023/11/13 04:20:12;;;;;;;11.38;7.72;;;;;;;5.23;90.24;99609.61;1647925;87;25697;-64
2023/11/13 04:22:37;;;;;;;8.23;6.70;;;;;;;5.21;90.18;99614.44;1665086;85;25645;-64
2023/11/13 04:25:06;;;;;;;11.18;7.58;;;;;;;5.19;90.15;99627.34;1683693;85;25435;-64
2023/11/13 04:27:33;;;;;;;9.38;6.40;;;;;;;5.17;90.15;99633.55;1683753;85;27344;-65
2023/11/13 04:29:59;;;;;;;9.40;6.50;;;;;;;5.13;90.16;99627.96;1647834;87;25680;-65
2023/11/13 04:32:28;;;;;;;11.65;6.83;;;;;;;5.13;90.31;99634.66;1659599;86;25638;-64
2023/11/13 04:34:55;;;;;;;10.98;6.37;;;;;;;5.12;90.33;99626.36;1647861;87;25616;-65
2023/11/13 04:37:21;;;;;;;8.45;5.97;;;;;;;5.10;90.35;99628.53;1683644;85;25632;-64
2023/11/13 04:39:48;;;;;;;10.23;6.33;;;;;;;5.10;90.35;99626.41;1647906;87;27985;-65
2023/11/13 04:42:15;;;;;;;7.33;5.53;;;;;;;5.10;90.29;99624.52;1659513;86;25639;-64
2023/11/13 04:44:43;;;;;;;8.73;6.37;;;;;;;5.11;90.35;99634.16;1647981;87;25588;-64
2023/11/13 04:47:10;;;;;;;7.50;5.87;;;;;;;5.10;90.35;99633.89;1659492;86;25777;-65
2023/11/13 04:49:38;;;;;;;9.25;6.17;;;;;;;5.11;90.40;99634.69;1648006;87;25487;-64
2023/11/13 04:52:06;;;;;;;7.10;5.42;;;;;;;5.10;90.40;99626.41;1683598;85;29487;-64
2023/11/13 04:54:33;;;;;;;9.13;6.08;;;;;;;5.10;90.37;99635.23;1683549;85;25590;-65
2023/11/13 04:57:00;;;;;;;7.62;5.97;;;;;;;5.11;90.37;99632.82;1647848;87;25588;-66
2023/11/13 04:59:28;;;;;;;8.43;5.87;;;;;;;5.12;90.40;99632.27;1647865;87;26184;-65
2023/11/13 05:01:55;;;;;;;9.13;5.55;;;;;;;5.15;90.42;99640.53;1683640;85;25648;-65
2023/11/13 05:04:22;;;;;;;8.70;5.40;;;;;;;5.14;90.33;99643.50;1647881;87;27327;-65
2023/11/13 05:06:49;;;;;;;7.85;5.33;;;;;;;5.13;90.30;99641.92;1643759;86;25513;-65
2023/11/13 05:09:16;;;;;;;7.10;5.58;;;;;;;5.15;90.53;99641.88;1647920;87;25428;-64
2023/11/13 05:11:43;;;;;;;7.72;6.03;;;;;;;5.15;90.51;99643.21;1683612;85;26281;-64
2023/11/13 05:14:10;;;;;;;6.83;5.95;;;;;;;5.15;90.60;99645.89;1647987;87;25396;-66
2023/11/13 05:16:37;;;;;;;8.20;6.20;;;;;;;5.18;90.85;99643.98;1659547;86;27350;-66
2023/11/13 05:19:04;;;;;;;9.13;6.08;;;;;;;5.19;91.01;99656.31;1647786;87;25411;-64
2023/11/13 05:21:32;;;;;;;11.75;7.78;;;;;;;5.21;91.07;99643.41;1683703;85;25459;-65
2023/11/13 05:23:59;;;;;;;14.13;7.72;;;;;;;5.22;91.12;99642.86;1683593;85;25600;-65
2023/11/13 05:26:27;;;;;;;11.22;8.08;;;;;;;5.20;91.19;99645.03;1647888;87;25444;-65
2023/11/13 05:28:55;;;;;;;12.18;8.28;;;;;;;5.20;91.32;99646.38;1659562;86;27106;-66
2023/11/13 05:31:22;;;;;;;13.70;10.20;;;;;;;5.20;91.48;99645.83;1643929;86;25741;-66
2023/11/13 05:33:49;;;;;;;13.62;9.93;;;;;;;5.19;91.49;99652.81;1683623;85;25653;-65
2023/11/13 05:36:16;;;;;;;15.03;9.55;;;;;;;5.15;91.59;99649.91;1647840;87;25636;-65
2023/11/13 05:38:43;;;;;;;13.68;9.20;;;;;;;5.13;91.72;99643.26;1659567;86;25420;-65
2023/11/13 05:41:10;;;;;;;13.05;10.03;;;;;;;5.10;91.70;99645.17;1647870;87;27362;-65
2023/11/13 05:43:37;;;;;;;14.00;9.40;;;;;;;5.08;91.81;99649.48;1659476;86;25685;-65
2023/11/13 05:46:05;;;;;;;16.90;10.18;;;;;;;5.07;91.86;99647.08;1647869;87;25594;-65
2023/11/13 05:48:32;;;;;;;12.95;9.98;;;;;;;5.04;91.93;99647.12;1647794;87;25718;-65
2023/11/13 05:51:01;;;;;;;14.58;9.63;;;;;;;5.02;92.17;99651.95;1683604;85;25664;-65
2023/11/13 05:53:28;;;;;;;15.80;10.18;;;;;;;4.99;92.26;99652.00;1683605;85;27196;-65
2023/11/13 05:55:55;;;;;;;17.60;10.70;;;;;;;4.98;92.35;99662.45;1683509;85;25651;-65
2023/11/13 05:58:22;;;;;;;19.10;10.23;;;;;;;4.99;92.55;99656.58;1683618;85;25589;-65
2023/11/13 06:00:49;;;;;;;18.55;11.65;;;;;;;4.97;92.81;99659.54;1683576;85;25979;-65
2023/11/13 06:03:16;;;;;;;18.60;11.33;;;;;;;4.98;93.03;99652.28;1683641;85;25504;-65
2023/11/13 06:05:45;;;;;;;16.73;11.30;;;;;;;4.97;93.10;99656.86;1683583;85;27329;-65
2023/11/13 06:08:12;;;;;;;17.82;12.30;;;;;;;4.98;93.20;99656.30;1683461;85;25779;-65
2023/11/13 06:10:39;;;;;;;22.42;13.10;;;;;;;4.96;93.42;99653.91;1683581;85;25436;-65
2023/11/13 06:13:06;;;;;;;21.12;13.53;;;;;;;4.94;93.32;99656.08;1683558;85;26086;-65
2023/11/13 06:15:36;;;;;;;23.15;14.20;;;;;;;4.95;93.56;99662.23;1683633;85;25466;-65
2023/11/13 06:18:02;;;;;;;18.63;13.27;;;;;;;4.94;93.71;99661.97;1684013;83;27383;-65
2023/11/13 06:20:29;;;;;;;23.10;13.13;;;;;;;4.94;93.96;99664.64;1683657;85;25417;-65
2023/11/13 06:22:57;;;;;;;22.42;14.63;;;;;;;4.95;94.16;99666.25;1683823;85;25664;-64
2023/11/13 06:25:24;;;;;;;21.33;14.30;;;;;;;4.95;94.18;99667.59;1683688;85;26187;-66
2023/11/13 06:27:52;;;;;;;23.00;13.60;;;;;;;4.96;94.24;99673.22;1683655;85;25600;-65
2023/11/13 06:30:20;;;;;;;19.67;13.78;;;;;;;4.96;94.30;99680.71;1683789;85;27333;-65
2023/11/13 06:32:49;;;;;;;21.65;13.75;;;;;;;4.97;94.46;99681.50;1683659;85;25492;-65
2023/11/13 06:35:19;;;;;;;;;;;;;;;4.97;94.36;99680.16;1686198;85;25560;-65
2023/11/13 06:37:47;;;;;;;19.57;12.65;;;;;;;4.98;94.42;99684.45;1683731;85;25627;-65
2023/11/13 06:40:16;;;;;;;18.80;13.08;;;;;;;4.97;94.55;99683.66;1683736;85;25454;-65
2023/11/13 06:42:47;;;;;;;21.82;12.70;;;;;;;4.98;94.60;99677.75;1683856;85;27314;-65
2023/11/13 06:45:16;;;;;;;19.10;13.50;;;;;;;5.00;94.77;99683.06;1683619;85;25858;-65
2023/11/13 06:47:50;;;;;;;22.37;13.72;;;;;;;5.00;94.67;99687.08;1683831;85;25692;-66
2023/11/13 06:50:12;;;;;;;21.02;14.28;;;;;;;5.01;94.69;99688.69;1683809;83;34665;-65
2023/11/13 06:52:40;;;;;;;21.97;14.35;;;;;;;5.01;94.72;99694.05;1683728;85;25625;-65
2023/11/13 06:55:13;;;;;;;22.52;15.15;;;;;;;5.02;94.80;99692.98;1683695;85;27387;-65
2023/11/13 06:57:37;;;;;;;23.52;14.60;;;;;;;5.03;94.77;99695.90;1683638;84;25956;-65
2023/11/13 07:00:08;;;;;;;21.77;14.85;;;;;;;5.05;94.74;99693.72;1683724;85;25669;-65
2023/11/13 07:02:40;;;;;;;18.17;13.48;;;;;;;5.07;94.89;99698.80;1683712;85;26212;-66
2023/11/13 07:05:15;;;;;;;25.88;15.78;;;;;;;5.08;94.83;99699.07;1683722;85;25483;-65
2023/11/13 07:07:39;;;;;;;24.02;15.90;;;;;;;5.10;94.79;99702.81;1682369;83;26999;-65
2023/11/13 07:10:12;;;;;;;25.80;14.47;;;;;;;5.11;94.72;99696.34;1683629;85;25656;-65
2023/11/13 07:12:37;;;;;;;26.17;15.30;;;;;;;5.13;94.59;99695.54;1683813;83;25588;-66
2023/11/13 07:15:05;;;;;;;22.98;15.90;;;;;;;5.14;94.57;99699.80;1678558;85;25550;-66
2023/11/13 07:17:33;;;;;;;23.80;15.80;;;;;;;5.16;94.67;99697.10;1679179;85;25441;-66
2023/11/13 07:20:03;;;;;;;23.55;15.55;;;;;;;5.19;94.71;99692.51;1683696;85;27919;-65
2023/11/13 07:22:31;;;;;;;27.13;16.20;;;;;;;5.24;94.69;99694.30;1683594;85;25632;-65
2023/11/13 07:24:58;;;;;;;26.97;16.48;;;;;;;5.29;94.84;99702.28;1678926;85;25514;-66
2023/11/13 07:27:25;;;;;;;23.95;16.02;;;;;;;5.33;94.69;99701.16;1683700;85;25569;-65
2023/11/13 07:29:53;;;;;;;25.17;15.68;;;;;;;5.34;94.43;99692.05;1683712;85;25446;-66
2023/11/13 07:32:20;;;;;;;26.48;16.05;;;;;;;5.37;94.35;99706.22;1683700;85;27248;-66
2023/11/13 07:34:48;;;;;;;24.65;16.20;;;;;;;5.40;94.20;99706.44;1683605;85;25561;-65
2023/11/13 07:37:15;;;;;;;26.40;16.77;;;;;;;5.43;94.24;99702.38;1683750;85;25480;-65
2023/11/13 07:39:41;;;;;;;24.63;16.00;;;;;;;5.47;93.95;99702.62;1683700;85;25673;-66
2023/11/13 07:42:08;;;;;;;24.75;15.48;;;;;;;5.49;94.00;99701.22;1683878;85;25686;-66
2023/11/13 07:44:35;;;;;;;22.32;15.70;;;;;;;5.52;93.69;99710.59;1683723;85;27445;-66
2023/11/13 07:47:05;;;;;;;26.12;16.73;;;;;;;5.52;93.28;99706.02;1683608;85;25614;-66
2023/11/13 07:49:32;;;;;;;23.77;15.48;;;;;;;5.56;93.35;99712.39;1683662;85;25531;-65
2023/11/13 07:51:59;;;;;;;27.32;15.23;;;;;;;5.57;93.11;99708.62;1683636;85;25811;-65
2023/11/13 07:54:27;;;;;;;23.98;15.88;;;;;;;5.60;93.11;99712.08;1683697;85;25649;-65
2023/11/13 07:56:53;;;;;;;23.50;14.05;;;;;;;5.64;93.02;99713.64;1683663;85;27355;-65
2023/11/13 07:59:21;;;;;;;20.27;14.68;;;;;;;5.68;93.00;99713.30;1683538;85;25411;-65
2023/11/13 08:01:47;;;;;;;28.60;15.68;;;;;;;5.72;92.98;99711.65;1679286;85;25456;-65
2023/11/13 08:04:14;;;;;;;26.23;14.25;;;;;;;5.76;92.48;99713.20;1683599;85;25680;-64
2023/11/13 08:06:40;;;;;;;25.50;14.65;;;;;;;5.80;92.70;99716.89;1683631;85;25676;-65
2023/11/13 08:09:10;;;;;;;24.90;15.23;;;;;;;5.83;92.03;99716.31;1683611;85;27316;-66
2023/11/13 08:11:37;;;;;;;22.82;13.95;;;;;;;5.86;91.81;99724.34;1683742;85;25487;-64
2023/11/13 08:14:04;;;;;;;24.52;14.28;;;;;;;5.88;91.58;99725.64;1683749;85;25502;-65
2023/11/13 08:16:32;;;;;;;18.80;13.32;;;;;;;5.92;91.90;99725.84;1683602;85;25647;-65
2023/11/13 08:18:59;;;;;;;21.70;13.32;;;;;;;5.95;91.32;99730.08;1683636;85;25629;-65
2023/11/13 08:21:30;;;;;;;19.70;13.13;;;;;;;5.97;91.08;99734.64;1665881;85;27075;-64
2023/11/13 08:23:56;;;;;;;19.92;13.50;;;;;;;5.99;91.01;99737.03;1683568;85;25475;-65
2023/11/13 08:26:28;;;;;;;19.80;13.20;;;;;;;6.03;90.74;99738.59;1683637;85;25476;-65
2023/11/13 08:28:53;;;;;;;19.52;13.10;;;;;;;6.04;90.56;99738.30;1683683;83;27773;-66
2023/11/13 08:31:21;;;;;;;;;;;;;;;6.06;90.46;99737.48;1686145;84;25651;-64
2023/11/13 08:33:48;;;;;;;20.92;12.70;;;;;;;6.08;89.96;99735.83;1683665;85;28009;-64
2023/11/13 08:36:17;;;;;;;21.10;13.13;;;;;;;6.08;89.99;99735.30;1683545;85;25427;-65
2023/11/13 08:38:45;;;;;;;20.88;13.10;;;;;;;6.12;90.26;99734.96;1683630;85;25256;-66
2023/11/13 08:41:13;;;;;;;20.10;12.60;;;;;;;6.17;90.03;99732.20;1683881;85;26763;-65
2023/11/13 08:43:40;;;;;;;23.90;12.80;;;;;;;6.22;90.18;99732.67;1684115;85;25584;-65
2023/11/13 08:46:07;;;;;;;18.62;12.05;;;;;;;6.30;90.24;99725.81;1665763;85;28116;-64
2023/11/13 08:48:35;;;;;;;18.87;12.70;;;;;;;6.31;89.27;99728.20;1683558;85;25781;-65
2023/11/13 08:51:05;;;;;;;20.82;12.63;;;;;;;6.32;88.93;99727.13;1683609;85;25439;-64
2023/11/13 08:53:32;;;;;;;18.65;12.18;;;;;;;6.32;88.68;99729.81;1683644;85;25622;-64
2023/11/13 08:56:04;;;;;;;18.80;12.03;;;;;;;6.33;88.62;99727.91;1683651;85;25466;-65
2023/11/13 08:58:30;;;;;;;15.93;11.43;;;;;;;6.38;88.78;99729.73;1683500;83;27273;-64
2023/11/13 09:00:58;;;;;;;18.12;11.78;;;;;;;6.40;88.76;99730.22;1683556;85;25465;-65
2023/11/13 09:03:29;;;;;;;18.87;11.80;;;;;;;6.41;88.26;99724.56;1683616;85;25614;-64
2023/11/13 09:05:55;;;;;;;18.70;10.72;;;;;;;6.40;87.55;99726.20;1683656;84;25629;-64
2023/11/13 09:08:23;;;;;;;16.85;12.07;;;;;;;6.38;87.42;99727.83;1683494;85;25625;-64
2023/11/13 09:10:51;;;;;;;17.73;11.38;;;;;;;6.39;87.38;99725.96;1683726;85;28114;-64
2023/11/13 09:13:18;;;;;;;16.20;11.25;;;;;;;6.44;87.54;99728.56;1683534;85;25580;-64
2023/11/13 09:15:44;;;;;;;17.20;11.70;;;;;;;6.52;87.95;99735.92;1683648;85;25653;-65
2023/11/13 09:18:12;;;;;;;15.70;11.15;;;;;;;6.57;86.80;99734.48;1683565;85;27821;-65
2023/11/13 09:20:44;;;;;;;24.65;11.80;;;;;;;6.57;86.42;99737.73;1683631;85;25684;-63
2023/11/13 09:23:11;;;;;;;15.95;11.25;;;;;;;6.60;86.55;99729.08;1683639;85;27422;-65
2023/11/13 09:25:42;;;;;;;15.08;10.70;;;;;;;6.64;85.77;99737.61;1683539;85;25660;-65
2023/11/13 09:28:09;;;;;;;17.05;11.12;;;;;;;6.67;86.10;99732.97;1683643;85;25578;-65
2023/11/13 09:30:36;;;;;;;17.35;11.68;;;;;;;6.79;86.21;99732.48;1679141;85;25610;-63
2023/11/13 09:33:05;;;;;;;16.23;11.48;;;;;;;6.86;86.06;99724.03;1683768;85;25651;-63
2023/11/13 09:35:33;;;;;;;21.27;15.05;;;;;;;6.93;85.68;99731.18;1683892;85;27697;-63
2023/11/13 09:38:01;;;;;;;17.70;11.93;;;;;;;6.99;85.68;99734.56;1683763;85;25632;-63
2023/11/13 09:40:35;;;;;;;20.20;13.43;;;;;;;6.99;84.74;99739.38;1683916;85;28172;-63
2023/11/13 09:43:18;;;;;;;16.70;10.80;;;;;;;6.98;84.59;99728.92;1683758;85;25978;-62
2023/11/13 09:45:55;;;;;;;19.32;11.83;;;;;;;6.97;84.08;99730.03;1683771;85;25468;-55
2023/11/13 09:48:30;;;;;;;18.15;11.25;;;;;;;6.98;84.53;99728.39;1683639;85;27379;-55
2023/11/13 09:50:59;;;;;;;16.90;12.03;;;;;;;7.04;84.48;99736.59;1683593;85;25479;-55
2023/11/13 09:53:28;;;;;;;18.32;11.73;;;;;;;7.08;84.58;99733.57;1683603;85;25581;-64
2023/11/13 09:55:56;;;;;;;17.10;11.30;;;;;;;7.18;84.30;99737.14;1683716;85;25691;-64
2023/11/13 09:58:24;;;;;;;17.52;12.15;;;;;;;7.20;83.81;99728.22;1683634;85;25648;-64
2023/11/13 10:00:53;;;;;;;15.70;11.45;;;;;;;7.27;84.38;99735.33;1683591;85;27515;-64
2023/11/13 10:03:20;;;;;;;19.52;12.20;;;;;;;7.34;83.83;99734.93;1683653;85;25641;-64
2023/11/13 10:05:50;;;;;;;18.30;11.05;;;;;;;7.34;82.71;99739.78;1683651;85;25618;-64
2023/11/13 10:08:17;;;;;;;15.85;11.90;;;;;;;7.31;82.92;99735.00;1683717;85;34760;-64
2023/11/13 10:10:45;;;;;;;19.67;11.83;;;;;;;7.35;83.12;99740.02;1683729;85;25433;-64
2023/11/13 10:13:12;;;;;;;17.25;11.88;;;;;;;7.35;83.00;99740.57;1679468;85;27337;-65
2023/11/13 10:15:44;;;;;;;17.75;11.25;;;;;;;7.36;82.85;99742.17;1683654;85;25405;-65
2023/11/13 10:18:12;;;;;;;16.87;11.95;;;;;;;7.37;82.86;99735.68;1683782;85;25682;-64
2023/11/13 10:20:46;;;;;;;17.23;11.80;;;;;;;7.40;82.35;99741.81;1683710;85;25664;-65
2023/11/13 10:23:15;;;;;;;16.17;11.68;;;;;;;7.42;82.99;99736.39;1683874;85;25484;-64
2023/11/13 10:25:56;;;;;;;17.02;11.35;;;;;;;7.43;81.32;99748.73;1683901;85;27360;-64
2023/11/13 10:28:42;;;;;;;17.23;10.95;;;;;;;7.40;81.66;99743.94;1665430;85;25493;-65
2023/11/13 10:31:16;;;;;;;15.70;11.97;;;;;;;7.37;80.97;99737.84;1683746;85;25480;-64
2023/11/13 10:33:39;;;;;;;17.12;11.78;;;;;;;7.37;81.93;99741.06;1682968;83;25696;-65
2023/11/13 10:36:17;;;;;;;19.90;11.20;;;;;;;7.40;81.30;99735.09;1683887;85;25495;-65
2023/11/13 10:38:50;;;;;;;17.30;11.95;;;;;;;7.37;80.81;99739.72;1683739;83;27221;-62
2023/11/13 10:41:33;;;;;;;16.32;11.10;;;;;;;7.38;81.37;99739.98;1683578;84;25577;-58
2023/11/13 10:43:58;;;;;;;15.05;11.30;;;;;;;7.36;80.92;99726.82;1683392;85;25459;-66
2023/11/13 10:46:36;;;;;;;15.23;10.50;;;;;;;7.41;81.70;99731.31;1683743;85;26465;-64
2023/11/13 10:49:12;;;;;;;15.60;11.33;;;;;;;7.43;81.48;99731.23;1683965;85;25649;-63
2023/11/13 10:51:35;;;;;;;24.82;14.63;;;;;;;7.45;80.75;99729.59;1683549;83;28453;-64
2023/11/13 10:54:08;;;;;;;13.18;10.35;;;;;;;7.47;80.70;99728.73;1683712;85;25459;-64
2023/11/13 10:56:35;;;;;;;16.97;11.22;;;;;;;7.46;80.36;99733.89;1683327;83;25420;-63
2023/11/13 10:59:03;;;;;;;16.17;10.82;;;;;;;7.48;80.46;99729.00;1683842;85;26174;-59
2023/11/13 11:01:33;;;;;;;15.40;10.98;;;;;;;7.50;80.70;99734.08;1683613;85;25466;-60
2023/11/13 11:04:05;;;;;;;15.10;10.75;;;;;;;7.54;80.68;99729.67;1683690;85;27417;-62
2023/11/13 11:06:37;;;;;;;14.85;9.85;;;;;;;7.57;79.94;99731.77;1683555;85;25638;-60
2023/11/13 11:09:12;;;;;;;15.00;9.70;;;;;;;7.55;80.15;99734.76;1686043;85;25695;-62
2023/11/13 11:11:35;;;;;;;15.85;9.63;;;;;;;7.58;80.30;99732.81;1653900;86;25497;-62
2023/11/13 11:14:15;;;;;;;13.50;10.18;;;;;;;7.58;79.78;99736.85;1667282;85;25437;-63
2023/11/13 11:17:00;;;;;;;14.15;9.35;;;;;;;7.55;79.61;99726.69;1688146;85;28162;-62
2023/11/13 11:19:35;;;;;;;14.85;9.80;;;;;;;7.56;80.16;99727.47;1687325;84;25674;-60
2023/11/13 11:22:30;;;;;;;15.72;9.78;;;;;;;7.60;80.11;99721.75;1685846;84;25735;-61
2023/11/13 11:25:22;;;;;;;12.68;9.48;;;;;;;7.64;80.20;99726.23;1688156;85;25991;-63
2023/11/13 11:27:50;;;;;;;13.13;9.83;;;;;;;7.67;79.76;99720.22;1668035;85;25623;-61
2023/11/13 11:30:25;;;;;;;15.18;10.38;;;;;;;7.72;80.04;99727.95;1654545;86;27680;-61
2023/11/13 11:33:04;;;;;;;14.03;10.88;;;;;;;7.71;79.43;99728.48;1688104;85;25685;-61
2023/11/13 11:35:35;;;;;;;14.43;10.15;;;;;;;7.73;79.75;99722.27;1688089;85;25472;-61